Time;durP1;ratioP1;P1;durP2;ratioP2;P2;SDS_P1;SDS_P2;PMS_P1;PMS_P2;Temp;Humidity;BMP_temperature;BMP_pressure;BME280_temperature;BME280_humidity;BME280_pressure;Samples;Min_cycle;Max_cycle;Signal;HPM_P1;HPM_P2
2023/03/30 00:02:29;;;;;;;8.80;5.43;;;;;;;10.60;nan;100956.50;4994501;28;20041;-49
2023/03/30 00:04:55;;;;;;;10.15;6.57;;;;;;;10.57;nan;100956.69;5000906;28;20044;-49
2023/03/30 00:07:21;;;;;;;10.65;6.50;;;;;;;10.60;nan;100960.91;4989151;28;20030;-50
2023/03/30 00:09:46;;;;;;;12.38;6.43;;;;;;;10.60;nan;100953.88;4997031;28;20033;-49
2023/03/30 00:12:14;;;;;;;11.65;6.90;;;;;;;10.58;nan;100949.66;4995158;28;20034;-50
2023/03/30 00:14:41;;;;;;;12.20;6.15;;;;;;;10.58;nan;100939.97;4996277;28;20556;-49
2023/03/30 00:17:08;;;;;;;13.55;6.57;;;;;;;10.55;nan;100932.22;4994595;28;20034;-48
2023/03/30 00:19:36;;;;;;;8.15;4.32;;;;;;;10.52;nan;100937.66;5005651;28;20100;-49
2023/03/30 00:22:07;;;;;;;15.85;7.22;;;;;;;10.54;nan;100935.78;5002588;28;20040;-50
2023/03/30 00:24:33;;;;;;;14.25;7.20;;;;;;;10.55;nan;100921.69;5004401;28;20026;-51
2023/03/30 00:26:59;;;;;;;13.55;7.55;;;;;;;10.58;nan;100913.66;5003641;28;20449;-50
2023/03/30 00:29:25;;;;;;;14.63;7.13;;;;;;;10.60;nan;100924.06;4995362;28;20791;-50
2023/03/30 00:31:50;;;;;;;12.35;6.53;;;;;;;10.58;nan;100912.81;4988230;28;20062;-49
2023/03/30 00:34:16;;;;;;;13.02;6.32;;;;;;;10.60;nan;100908.28;4999938;28;20598;-49
2023/03/30 00:36:41;;;;;;;13.05;7.32;;;;;;;10.63;nan;100909.00;5006932;28;20480;-49
2023/03/30 00:39:07;;;;;;;10.10;4.88;;;;;;;10.62;nan;100902.03;5001667;28;20030;-50
2023/03/30 00:41:34;;;;;;;14.10;7.30;;;;;;;10.57;nan;100898.78;5011673;28;20451;-49
2023/03/30 00:44:03;;;;;;;12.15;7.15;;;;;;;10.55;nan;100895.38;5005141;28;20076;-49
2023/03/30 00:46:30;;;;;;;14.98;8.10;;;;;;;10.51;nan;100891.25;5004529;28;20025;-49
2023/03/30 00:48:59;;;;;;;13.25;7.20;;;;;;;10.50;nan;100892.19;5009483;28;20033;-49
2023/03/30 00:51:28;;;;;;;13.75;7.57;;;;;;;10.47;nan;100889.72;4999809;28;20039;-49
2023/03/30 00:53:58;;;;;;;14.52;7.95;;;;;;;10.47;nan;100892.34;5008044;28;20385;-49
2023/03/30 00:56:27;;;;;;;11.65;6.93;;;;;;;10.47;nan;100887.09;5002576;28;20058;-50
2023/03/30 00:58:53;;;;;;;13.15;8.07;;;;;;;10.45;nan;100881.88;4996029;28;20472;-49
2023/03/30 01:01:27;;;;;;;15.93;7.40;;;;;;;10.47;nan;100880.03;4999320;28;20045;-49
2023/03/30 01:03:54;;;;;;;17.27;8.05;;;;;;;10.49;nan;100888.69;5006097;28;20033;-50
2023/03/30 01:06:23;;;;;;;14.98;7.65;;;;;;;10.49;nan;100882.59;5009177;28;20032;-49
2023/03/30 01:08:50;;;;;;;14.88;8.57;;;;;;;10.47;nan;100879.19;5007783;28;20056;-51
2023/03/30 01:11:16;;;;;;;15.00;7.57;;;;;;;10.44;nan;100876.72;4998168;28;23369;-50
2023/03/30 01:13:45;;;;;;;13.10;7.88;;;;;;;10.44;nan;100871.47;4999529;28;20042;-49
2023/03/30 01:16:22;;;;;;;18.00;8.18;;;;;;;10.44;nan;100868.81;5010860;28;20061;-49
2023/03/30 01:19:21;;;;;;;14.32;8.52;;;;;;;10.44;nan;100864.41;5003588;28;20019;-48
2023/03/30 01:22:22;;;;;;;16.45;8.70;;;;;;;10.44;nan;100863.56;4987835;28;20042;-51
2023/03/30 01:25:06;;;;;;;14.02;8.40;;;;;;;10.44;nan;100860.94;4999986;28;20026;-49
2023/03/30 01:28:17;;;;;;;15.30;7.80;;;;;;;10.45;nan;100858.22;5004031;28;20117;-49
2023/03/30 01:31:03;;;;;;;14.02;7.85;;;;;;;10.46;nan;100859.06;4997383;28;20030;-49
2023/03/30 01:33:57;;;;;;;14.68;8.40;;;;;;;10.44;nan;100840.72;4996007;28;20038;-48
2023/03/30 01:36:34;;;;;;;13.00;7.35;;;;;;;10.42;nan;100837.34;5003185;28;20425;-50
2023/03/30 01:39:17;;;;;;;15.98;8.90;;;;;;;10.45;nan;100842.44;4991238;28;20057;-49
2023/03/30 01:41:58;;;;;;;17.05;8.88;;;;;;;10.44;nan;100838.09;5003069;28;20407;-51
2023/03/30 01:44:52;;;;;;;18.48;9.07;;;;;;;10.45;nan;100833.69;4997908;28;20022;-50
2023/03/30 01:48:00;;;;;;;16.17;8.70;;;;;;;10.42;nan;100825.97;4998290;28;20482;-49
2023/03/30 01:50:36;;;;;;;19.25;9.30;;;;;;;10.36;nan;100825.34;5003862;28;20556;-49
2023/03/30 01:53:14;;;;;;;17.42;8.88;;;;;;;10.34;nan;100827.22;5008346;28;20034;-49
2023/03/30 01:55:47;;;;;;;17.15;8.98;;;;;;;10.31;nan;100819.50;5009866;28;20025;-50
2023/03/30 01:58:31;;;;;;;15.57;9.18;;;;;;;10.35;nan;100809.66;4996972;28;20101;-49
2023/03/30 02:00:59;;;;;;;16.60;9.07;;;;;;;10.37;nan;100805.16;4999685;28;20421;-49
2023/03/30 02:03:29;;;;;;;18.85;9.05;;;;;;;10.41;nan;100803.22;5002330;28;20033;-51
2023/03/30 02:06:02;;;;;;;17.20;9.40;;;;;;;10.42;nan;100804.94;5000223;28;20492;-50
2023/03/30 02:08:31;;;;;;;19.65;9.00;;;;;;;10.42;nan;100797.03;5005538;28;20109;-51
2023/03/30 02:10:58;;;;;;;17.58;9.80;;;;;;;10.43;nan;100794.34;5007749;28;20045;-49
2023/03/30 02:13:27;;;;;;;19.48;9.15;;;;;;;10.46;nan;100795.94;5000569;28;20120;-49
2023/03/30 02:15:58;;;;;;;18.25;9.88;;;;;;;10.46;nan;100791.50;4999178;28;20389;-49
2023/03/30 02:18:24;;;;;;;18.42;9.95;;;;;;;10.44;nan;100782.03;4994380;28;20061;-50
2023/03/30 02:20:49;;;;;;;18.30;9.00;;;;;;;10.44;nan;100776.75;5004202;28;20061;-50
2023/03/30 02:23:20;;;;;;;18.80;10.23;;;;;;;10.45;nan;100783.72;4998182;28;20374;-49
2023/03/30 02:25:45;;;;;;;20.67;10.85;;;;;;;10.46;nan;100772.25;4996051;28;20030;-50
2023/03/30 02:28:11;;;;;;;20.65;10.13;;;;;;;10.46;nan;100762.56;4994837;28;20099;-50
2023/03/30 02:30:42;;;;;;;16.90;9.55;;;;;;;10.44;nan;100761.81;4994897;28;20041;-50
2023/03/30 02:33:21;;;;;;;17.15;9.45;;;;;;;10.39;nan;100760.38;4993714;28;20029;-49
2023/03/30 02:36:18;;;;;;;19.15;10.77;;;;;;;10.36;nan;100756.94;4999397;28;20057;-49
2023/03/30 02:38:58;;;;;;;45.63;20.73;;;;;;;10.37;nan;100763.91;4998881;28;20046;-49
2023/03/30 02:41:37;;;;;;;25.65;13.57;;;;;;;10.34;nan;100756.22;4997829;28;20022;-51
2023/03/30 02:44:54;;;;;;;17.17;10.93;;;;;;;10.31;nan;100756.38;4994813;28;20034;-49
2023/03/30 02:47:57;;;;;;;18.10;10.55;;;;;;;10.32;nan;100773.00;4994786;28;20591;-51
2023/03/30 02:50:49;;;;;;;20.25;11.90;;;;;;;10.29;nan;100771.41;4996915;28;20038;-50
2023/03/30 02:53:32;;;;;;;19.55;11.25;;;;;;;10.27;nan;100765.38;4987162;28;20030;-49
2023/03/30 02:56:27;;;;;;;23.33;12.02;;;;;;;10.24;nan;100760.28;4997963;28;20641;-51
2023/03/30 02:59:16;;;;;;;25.08;11.60;;;;;;;10.23;nan;100761.22;5001264;28;20038;-49
2023/03/30 03:01:48;;;;;;;21.20;11.98;;;;;;;10.23;nan;100755.94;4999735;28;20032;-51
2023/03/30 03:04:17;;;;;;;22.92;11.68;;;;;;;10.26;nan;100752.31;4995864;28;20018;-51
2023/03/30 03:06:44;;;;;;;21.95;12.80;;;;;;;10.26;nan;100753.16;4995734;28;20424;-49
2023/03/30 03:09:10;;;;;;;29.20;14.00;;;;;;;10.27;nan;100746.97;4997971;28;20114;-49
2023/03/30 03:11:35;;;;;;;25.75;12.65;;;;;;;10.26;nan;100742.63;4995506;28;20109;-49
2023/03/30 03:14:01;;;;;;;30.35;14.63;;;;;;;10.23;nan;100748.06;5000755;28;20065;-50
2023/03/30 03:16:26;;;;;;;23.98;13.25;;;;;;;10.26;nan;100742.63;4996910;28;20038;-50
2023/03/30 03:18:52;;;;;;;27.95;14.15;;;;;;;10.25;nan;100738.31;4997596;28;20054;-49
2023/03/30 03:21:18;;;;;;;29.25;14.80;;;;;;;10.24;nan;100726.09;4999159;28;20058;-49
2023/03/30 03:23:47;;;;;;;25.38;14.05;;;;;;;10.25;nan;100719.91;4996612;28;20030;-49
2023/03/30 03:26:12;;;;;;;30.92;14.60;;;;;;;10.27;nan;100707.50;4997232;28;21124;-50
2023/03/30 03:28:38;;;;;;;29.42;17.35;;;;;;;10.29;nan;100710.03;5002127;28;20045;-49
2023/03/30 03:31:04;;;;;;;27.15;16.58;;;;;;;10.33;nan;100699.28;4991147;28;20030;-49
2023/03/30 03:33:31;;;;;;;25.85;14.00;;;;;;;10.37;nan;100692.88;4988956;28;20045;-50
2023/03/30 03:35:59;;;;;;;27.33;13.25;;;;;;;10.38;nan;100680.63;4993789;28;20528;-50
2023/03/30 03:38:26;;;;;;;24.38;12.65;;;;;;;10.37;nan;100677.09;4996117;28;20065;-50
2023/03/30 03:40:54;;;;;;;28.55;14.48;;;;;;;10.37;nan;100657.88;5002356;28;20033;-49
2023/03/30 03:43:20;;;;;;;24.65;12.45;;;;;;;10.34;nan;100653.63;5003559;28;20168;-49
2023/03/30 03:45:48;;;;;;;26.25;14.15;;;;;;;10.32;nan;100650.25;4997169;28;20033;-50
2023/03/30 03:48:14;;;;;;;26.65;14.38;;;;;;;10.28;nan;100637.38;5001388;28;20042;-49
2023/03/30 03:50:41;;;;;;;24.58;15.00;;;;;;;10.27;nan;100640.94;5006010;28;20037;-49
2023/03/30 03:53:07;;;;;;;23.63;14.45;;;;;;;10.28;nan;100651.34;5001845;28;20475;-49
2023/03/30 03:55:36;;;;;;;27.88;14.88;;;;;;;10.26;nan;100649.75;5000837;28;20044;-49
2023/03/30 03:58:03;;;;;;;25.98;14.48;;;;;;;10.22;nan;100651.69;5005396;28;20049;-49
2023/03/30 04:00:29;;;;;;;22.05;14.18;;;;;;;10.20;nan;100649.16;5000947;28;20111;-50
2023/03/30 04:02:55;;;;;;;25.50;14.82;;;;;;;10.21;nan;100639.47;5006750;28;20038;-50
2023/03/30 04:05:20;;;;;;;28.65;16.23;;;;;;;10.20;nan;100638.66;4998982;28;20288;-49
2023/03/30 04:07:46;;;;;;;30.00;17.58;;;;;;;10.18;nan;100644.94;4996537;28;20058;-49
2023/03/30 04:10:13;;;;;;;31.30;16.63;;;;;;;10.19;nan;100644.00;4996216;28;20037;-49
2023/03/30 04:12:38;;;;;;;31.17;16.65;;;;;;;10.19;nan;100646.63;5001240;28;20021;-51
2023/03/30 04:15:05;;;;;;;32.97;16.60;;;;;;;10.20;nan;100648.34;5005520;28;20036;-51
2023/03/30 04:17:35;;;;;;;29.67;16.30;;;;;;;10.22;nan;100641.19;5000127;28;20053;-49
2023/03/30 04:20:07;;;;;;;32.55;15.98;;;;;;;10.27;nan;100633.88;4998580;28;20032;-51
2023/03/30 04:22:36;;;;;;;27.65;16.38;;;;;;;10.26;nan;100621.66;5003227;28;20500;-50
2023/03/30 04:25:05;;;;;;;31.90;17.75;;;;;;;10.28;nan;100613.69;5003355;28;20082;-51
2023/03/30 04:27:31;;;;;;;34.22;15.98;;;;;;;10.25;nan;100617.34;4997006;28;20029;-49
2023/03/30 04:29:57;;;;;;;29.75;16.30;;;;;;;10.25;nan;100622.59;4996560;28;20046;-49
2023/03/30 04:32:23;;;;;;;29.92;15.68;;;;;;;10.27;nan;100623.34;4987013;28;20034;-49
2023/03/30 04:34:53;;;;;;;27.77;15.85;;;;;;;10.29;nan;100621.50;4998322;28;20124;-48
2023/03/30 04:37:28;;;;;;;28.13;15.85;;;;;;;10.32;nan;100626.56;4997294;28;20042;-50
2023/03/30 04:39:57;;;;;;;28.83;15.45;;;;;;;10.35;nan;100620.28;4981720;28;20084;-48
2023/03/30 04:42:29;;;;;;;28.75;14.70;;;;;;;10.37;nan;100619.25;4989764;28;20038;-50
2023/03/30 04:44:57;;;;;;;28.55;15.13;;;;;;;10.38;nan;100609.63;4992476;28;20061;-49
2023/03/30 04:47:27;;;;;;;32.47;16.48;;;;;;;10.41;nan;100611.22;4976586;28;20459;-48
2023/03/30 04:49:52;;;;;;;32.78;18.08;;;;;;;10.41;nan;100613.84;4984479;28;20091;-49
2023/03/30 04:52:18;;;;;;;32.13;17.83;;;;;;;10.44;nan;100613.66;4990535;28;20034;-49
2023/03/30 04:54:44;;;;;;;26.70;16.63;;;;;;;10.44;nan;100605.78;4997872;28;20099;-48
2023/03/30 04:57:12;;;;;;;30.50;16.38;;;;;;;10.46;nan;100617.06;5000405;28;20030;-49
2023/03/30 04:59:41;;;;;;;25.50;15.00;;;;;;;10.45;nan;100607.47;4990908;28;20014;-50
2023/03/30 05:02:07;;;;;;;28.73;15.35;;;;;;;10.45;nan;100612.72;4986748;28;20134;-50
2023/03/30 05:04:33;;;;;;;16.85;9.13;;;;;;;10.42;nan;100605.00;4997992;28;20536;-49
2023/03/30 05:06:59;;;;;;;25.40;14.20;;;;;;;10.41;nan;100595.44;4997783;28;20074;-50
2023/03/30 05:09:25;;;;;;;26.35;15.52;;;;;;;10.42;nan;100592.72;4999411;28;20034;-49
2023/03/30 05:11:50;;;;;;;29.25;17.13;;;;;;;10.43;nan;100596.19;4997514;28;20091;-51
2023/03/30 05:14:16;;;;;;;32.92;19.52;;;;;;;10.46;nan;100593.38;5011380;28;20033;-50
2023/03/30 05:16:41;;;;;;;33.75;19.45;;;;;;;10.47;nan;100585.38;4999253;28;20161;-49
2023/03/30 05:19:07;;;;;;;29.23;17.20;;;;;;;10.50;nan;100598.34;5000619;28;20552;-49
2023/03/30 05:21:33;;;;;;;24.98;15.73;;;;;;;10.55;nan;100594.63;5000109;28;20045;-50
2023/03/30 05:23:59;;;;;;;22.77;13.95;;;;;;;10.56;nan;100591.88;4998125;28;20025;-49
2023/03/30 05:26:26;;;;;;;24.63;13.93;;;;;;;10.60;nan;100584.63;4999810;28;20121;-50
2023/03/30 05:28:52;;;;;;;20.63;11.35;;;;;;;10.58;nan;100576.84;5009719;28;20492;-50
2023/03/30 05:31:18;;;;;;;51.35;28.50;;;;;;;10.60;nan;100580.25;5004265;28;20061;-51
2023/03/30 05:33:44;;;;;;;26.65;16.65;;;;;;;10.62;nan;100583.63;4996329;28;20037;-50
2023/03/30 05:36:10;;;;;;;26.73;15.00;;;;;;;10.61;nan;100575.81;5007034;28;20052;-49
2023/03/30 05:38:36;;;;;;;28.20;16.73;;;;;;;10.61;nan;100574.03;5007660;28;20033;-49
2023/03/30 05:41:01;;;;;;;31.30;17.83;;;;;;;10.61;nan;100568.78;5008087;28;20038;-49
2023/03/30 05:43:27;;;;;;;28.35;16.92;;;;;;;10.67;nan;100570.19;5010184;28;20025;-49
2023/03/30 05:45:52;;;;;;;25.33;14.32;;;;;;;10.65;nan;100559.75;5005778;28;20034;-49
2023/03/30 05:48:18;;;;;;;23.98;14.63;;;;;;;10.70;nan;100558.63;4999453;28;20026;-49
2023/03/30 05:50:46;;;;;;;21.88;14.43;;;;;;;10.71;nan;100545.38;4991896;28;20110;-49
2023/03/30 05:53:11;;;;;;;23.20;14.02;;;;;;;10.75;nan;100551.28;5004682;28;20029;-51
2023/03/30 05:55:37;;;;;;;23.30;14.77;;;;;;;10.77;nan;100544.16;4998913;28;20022;-51
2023/03/30 05:58:02;;;;;;;24.52;13.90;;;;;;;10.81;nan;100543.88;4997713;28;20034;-50
2023/03/30 06:00:32;;;;;;;25.10;15.65;;;;;;;10.83;nan;100546.38;5003944;28;20087;-50
2023/03/30 06:02:58;;;;;;;26.90;14.75;;;;;;;10.85;nan;100539.25;5012466;28;20481;-48
2023/03/30 06:05:24;;;;;;;24.77;15.48;;;;;;;10.83;nan;100535.84;5002727;28;20033;-49
2023/03/30 06:07:49;;;;;;;26.55;14.20;;;;;;;10.87;nan;100533.91;5004485;28;20038;-49
2023/03/30 06:10:15;;;;;;;23.27;14.55;;;;;;;10.87;nan;100523.38;5008313;28;20511;-50
2023/03/30 06:12:40;;;;;;;23.88;14.57;;;;;;;10.87;nan;100518.94;5010479;28;20033;-49
2023/03/30 06:15:07;;;;;;;21.08;13.68;;;;;;;10.88;nan;100518.00;5011447;28;20049;-49
2023/03/30 06:17:35;;;;;;;25.98;14.63;;;;;;;10.89;nan;100517.06;5005243;28;20407;-50
2023/03/30 06:20:07;;;;;;;24.02;14.32;;;;;;;10.88;nan;100507.47;4998061;28;20607;-49
2023/03/30 06:22:33;;;;;;;22.38;14.27;;;;;;;10.88;nan;100499.59;5003221;28;20045;-49
2023/03/30 06:24:58;;;;;;;25.42;15.57;;;;;;;10.91;nan;100499.38;5003219;28;20072;-50
2023/03/30 06:27:24;;;;;;;22.40;14.68;;;;;;;10.92;nan;100501.09;4998795;28;20611;-50
2023/03/30 06:29:49;;;;;;;24.95;14.73;;;;;;;10.94;nan;100491.31;5004551;28;20026;-49
2023/03/30 06:32:15;;;;;;;23.35;14.80;;;;;;;10.93;nan;100484.34;5003918;28;20062;-50
2023/03/30 06:34:41;;;;;;;25.85;15.65;;;;;;;10.97;nan;100488.44;5000990;28;20029;-49
2023/03/30 06:37:07;;;;;;;26.13;14.65;;;;;;;11.01;nan;100496.16;5007556;28;20038;-50
2023/03/30 06:39:36;;;;;;;23.75;13.60;;;;;;;10.97;nan;100483.19;5000510;28;20117;-49
2023/03/30 06:42:01;;;;;;;22.90;13.15;;;;;;;11.01;nan;100475.09;5003637;28;20741;-48
2023/03/30 06:44:27;;;;;;;26.58;13.23;;;;;;;10.98;nan;100463.81;5002981;28;20058;-47
2023/03/30 06:46:53;;;;;;;22.17;13.80;;;;;;;11.04;nan;100464.38;5003567;28;20432;-48
2023/03/30 06:49:19;;;;;;;20.17;12.77;;;;;;;11.08;nan;100464.06;5002676;28;20026;-50
2023/03/30 06:51:45;;;;;;;20.80;12.50;;;;;;;11.13;nan;100455.88;5010604;28;20113;-50
2023/03/30 06:54:11;;;;;;;26.58;13.60;;;;;;;11.21;nan;100461.50;5009567;28;20030;-51
2023/03/30 06:56:37;;;;;;;21.55;12.75;;;;;;;11.25;nan;100457.75;5003588;28;20026;-49
2023/03/30 06:59:04;;;;;;;21.30;12.63;;;;;;;11.29;nan;100461.84;5005731;28;20030;-49
2023/03/30 07:01:30;;;;;;;20.77;12.35;;;;;;;11.37;nan;100455.25;5005673;28;20057;-49
2023/03/30 07:03:55;;;;;;;20.63;12.15;;;;;;;11.43;nan;100463.59;5003447;28;20065;-49
2023/03/30 07:06:21;;;;;;;20.63;12.38;;;;;;;11.43;nan;100450.41;5010613;28;20476;-48
2023/03/30 07:08:47;;;;;;;18.42;11.80;;;;;;;11.48;nan;100436.94;5004981;28;20022;-47
2023/03/30 07:11:13;;;;;;;19.92;11.77;;;;;;;11.51;nan;100428.81;5010657;28;20037;-49
2023/03/30 07:13:39;;;;;;;21.02;11.52;;;;;;;11.61;nan;100447.50;4996586;28;20038;-49
2023/03/30 07:16:05;;;;;;;30.60;16.70;;;;;;;11.65;nan;100437.59;5002150;28;20030;-49
2023/03/30 07:18:30;;;;;;;35.17;17.42;;;;;;;11.67;nan;100440.97;5000723;28;20029;-50
2023/03/30 07:20:59;;;;;;;19.83;11.80;;;;;;;11.71;nan;100438.03;4998317;28;20061;-50
2023/03/30 07:23:25;;;;;;;18.42;10.77;;;;;;;11.74;nan;100436.97;4995348;28;20034;-49
2023/03/30 07:25:51;;;;;;;18.63;10.85;;;;;;;11.78;nan;100438.44;5002101;28;20167;-48
2023/03/30 07:28:18;;;;;;;14.60;10.13;;;;;;;11.82;nan;100447.84;5003903;28;20489;-49
2023/03/30 07:30:43;;;;;;;21.00;11.18;;;;;;;11.86;nan;100457.25;4997578;28;20604;-49
2023/03/30 07:33:09;;;;;;;19.33;10.27;;;;;;;11.94;nan;100458.50;5005763;28;20116;-50
2023/03/30 07:35:35;;;;;;;21.88;10.70;;;;;;;12.00;nan;100452.84;5002780;28;20052;-50
2023/03/30 07:38:01;;;;;;;18.02;11.27;;;;;;;12.08;nan;100454.97;5001765;28;20157;-49
2023/03/30 07:40:27;;;;;;;18.88;11.15;;;;;;;12.15;nan;100462.34;5002263;28;20045;-51
2023/03/30 07:42:52;;;;;;;18.70;10.93;;;;;;;12.24;nan;100462.66;5002930;28;20049;-49
2023/03/30 07:45:17;;;;;;;18.90;9.50;;;;;;;12.28;nan;100459.69;5002883;28;20376;-49
2023/03/30 07:47:43;;;;;;;16.95;10.85;;;;;;;12.29;nan;100450.00;4997903;28;20088;-50
2023/03/30 07:50:08;;;;;;;15.63;10.40;;;;;;;12.28;nan;100443.03;5001460;28;20026;-49
2023/03/30 07:52:34;;;;;;;20.33;12.20;;;;;;;12.32;nan;100436.59;4996068;28;20034;-49
2023/03/30 07:55:00;;;;;;;20.88;11.35;;;;;;;12.39;nan;100432.56;5002348;28;20041;-50
2023/03/30 07:57:26;;;;;;;19.58;10.13;;;;;;;12.43;nan;100433.19;5001387;28;20034;-49
2023/03/30 07:59:51;;;;;;;19.88;10.50;;;;;;;12.50;nan;100427.34;5008470;28;20021;-50
2023/03/30 08:02:17;;;;;;;21.58;10.85;;;;;;;12.56;nan;100412.88;5000813;28;20064;-50
2023/03/30 08:04:43;;;;;;;9.45;6.50;;;;;;;12.68;nan;100411.16;5003544;28;20072;-50
2023/03/30 08:07:09;;;;;;;15.95;10.55;;;;;;;12.75;nan;100407.13;5004046;28;20058;-49
2023/03/30 08:09:37;;;;;;;16.73;10.32;;;;;;;12.81;nan;100385.56;4999823;28;20096;-49
2023/03/30 08:12:02;;;;;;;39.13;20.45;;;;;;;12.86;nan;100385.22;5003581;28;20045;-49
2023/03/30 08:14:28;;;;;;;24.70;11.45;;;;;;;12.91;nan;100392.81;5008405;28;20038;-49
2023/03/30 08:16:55;;;;;;;14.02;8.02;;;;;;;12.94;nan;100395.22;5006139;28;20057;-49
2023/03/30 08:19:23;;;;;;;13.15;8.55;;;;;;;13.01;nan;100407.03;4996585;28;20038;-49
2023/03/30 08:21:48;;;;;;;14.25;8.57;;;;;;;13.02;nan;100400.78;4994411;28;20022;-49
2023/03/30 08:24:14;;;;;;;16.25;9.18;;;;;;;13.02;nan;100392.00;5001791;28;20049;-49
2023/03/30 08:26:40;;;;;;;16.45;8.27;;;;;;;13.02;nan;100386.72;5000282;28;20083;-49
2023/03/30 08:29:07;;;;;;;15.80;8.77;;;;;;;12.99;nan;100371.13;4991508;28;20041;-51
2023/03/30 08:31:33;;;;;;;18.63;8.88;;;;;;;12.93;nan;100377.72;5001892;28;20492;-47
2023/03/30 08:33:58;;;;;;;13.32;9.00;;;;;;;12.88;nan;100364.81;5002254;28;20084;-49
2023/03/30 08:36:24;;;;;;;13.20;8.07;;;;;;;12.87;nan;100359.66;5004316;28;20030;-49
2023/03/30 08:38:53;;;;;;;15.05;8.32;;;;;;;12.87;nan;100351.75;5006235;28;20076;-48
2023/03/30 08:41:30;;;;;;;15.40;7.20;;;;;;;12.86;nan;100342.97;5003244;28;20061;-49
2023/03/30 08:44:24;;;;;;;11.75;7.60;;;;;;;12.90;nan;100354.16;5005136;28;20061;-50
2023/03/30 08:46:50;;;;;;;15.07;8.02;;;;;;;12.94;nan;100347.69;4995054;28;20050;-49
2023/03/30 08:49:19;;;;;;;13.80;7.65;;;;;;;12.99;nan;100345.56;5000898;28;20036;-49
2023/03/30 08:51:48;;;;;;;17.60;9.65;;;;;;;13.04;nan;100332.00;5011013;28;20032;-49
2023/03/30 08:54:17;;;;;;;17.08;8.73;;;;;;;13.11;nan;100334.06;5013185;28;20030;-49
2023/03/30 08:57:16;;;;;;;16.33;8.05;;;;;;;13.20;nan;100343.09;5002433;28;20377;-50
2023/03/30 08:59:50;;;;;;;12.32;6.93;;;;;;;13.23;nan;100334.13;5006901;28;20153;-50
2023/03/30 09:02:29;;;;;;;12.55;6.70;;;;;;;13.29;nan;100336.28;5005799;28;20061;-49
2023/03/30 09:05:00;;;;;;;13.93;6.88;;;;;;;13.31;nan;100333.53;5007629;28;20507;-50
2023/03/30 09:07:38;;;;;;;12.05;7.47;;;;;;;13.40;nan;100328.41;5009541;28;20037;-49
2023/03/30 09:10:10;;;;;;;15.70;7.88;;;;;;;13.44;nan;100338.75;5005352;28;20025;-48
2023/03/30 09:12:57;;;;;;;11.52;7.50;;;;;;;13.51;nan;100329.41;5009837;28;20030;-49
2023/03/30 09:15:45;;;;;;;10.55;6.97;;;;;;;13.58;nan;100322.66;5009532;28;20114;-48
2023/03/30 09:18:19;;;;;;;14.48;7.78;;;;;;;13.67;nan;100323.75;5006656;28;20121;-49
2023/03/30 09:20:49;;;;;;;12.13;6.72;;;;;;;13.74;nan;100324.13;5001030;28;20104;-49
2023/03/30 09:23:16;;;;;;;11.75;7.35;;;;;;;13.81;nan;100330.63;5003770;28;20032;-49
2023/03/30 09:25:48;;;;;;;11.82;6.47;;;;;;;13.83;nan;100323.44;5005222;28;20057;-48
2023/03/30 09:28:22;;;;;;;19.20;8.52;;;;;;;13.94;nan;100338.44;5000815;28;20118;-49
2023/03/30 09:30:52;;;;;;;12.75;7.03;;;;;;;14.00;nan;100333.50;5000293;28;20033;-49
2023/03/30 09:33:57;;;;;;;11.95;6.97;;;;;;;14.08;nan;100332.06;5012675;28;20045;-49
2023/03/30 09:36:39;;;;;;;10.90;6.97;;;;;;;14.08;nan;100317.00;5007650;28;20484;-51
2023/03/30 09:39:26;;;;;;;15.88;7.57;;;;;;;14.15;nan;100306.78;5004581;28;20065;-49
2023/03/30 09:42:12;;;;;;;12.65;7.30;;;;;;;14.17;nan;100304.84;5008219;28;20110;-49
2023/03/30 09:44:46;;;;;;;13.10;7.07;;;;;;;14.22;nan;100294.75;5009161;28;20049;-49
2023/03/30 09:47:23;;;;;;;11.88;6.80;;;;;;;14.29;nan;100295.94;5005170;28;20088;-49
2023/03/30 09:49:54;;;;;;;15.18;7.22;;;;;;;14.37;nan;100294.50;4997199;28;20027;-50
2023/03/30 09:52:22;;;;;;;11.80;7.05;;;;;;;14.44;nan;100295.69;5006483;28;20030;-49
2023/03/30 09:54:48;;;;;;;13.32;7.45;;;;;;;14.49;nan;100282.91;5002484;28;20037;-48
2023/03/30 09:57:30;;;;;;;12.48;7.82;;;;;;;14.55;nan;100287.69;5003583;28;20030;-49
2023/03/30 09:59:57;;;;;;;13.90;7.30;;;;;;;14.53;nan;100291.41;5007460;28;20369;-48
2023/03/30 10:02:26;;;;;;;11.60;7.88;;;;;;;14.49;nan;100298.78;5002420;28;20401;-50
2023/03/30 10:04:51;;;;;;;12.13;7.05;;;;;;;14.48;nan;100299.75;5002944;28;20377;-49
2023/03/30 10:07:51;;;;;;;13.02;6.75;;;;;;;14.54;nan;100293.09;5000683;28;20042;-49
2023/03/30 10:10:36;;;;;;;11.75;6.90;;;;;;;14.59;nan;100289.13;5000031;28;20030;-49
2023/03/30 10:13:07;;;;;;;10.60;6.93;;;;;;;14.66;nan;100288.63;5006953;28;20123;-49
2023/03/30 10:15:37;;;;;;;12.88;6.95;;;;;;;14.76;nan;100289.56;5006501;28;20042;-49
2023/03/30 10:18:16;;;;;;;11.75;6.95;;;;;;;14.85;nan;100287.97;4999764;28;20045;-49
2023/03/30 10:20:50;;;;;;;12.93;6.38;;;;;;;14.93;nan;100294.31;4998984;28;20038;-51
2023/03/30 10:23:18;;;;;;;15.52;7.05;;;;;;;15.02;nan;100289.22;5001718;28;20037;-49
2023/03/30 10:25:48;;;;;;;11.45;6.53;;;;;;;15.11;nan;100288.44;5003524;28;20026;-48
2023/03/30 10:28:24;;;;;;;16.00;7.40;;;;;;;15.18;nan;100288.75;5003022;28;20135;-49
2023/03/30 10:30:52;;;;;;;14.10;7.30;;;;;;;15.26;nan;100286.31;4986756;28;20041;-49
2023/03/30 10:33:19;;;;;;;14.82;6.80;;;;;;;15.34;nan;100288.31;4993735;28;20119;-49
2023/03/30 10:35:48;;;;;;;14.18;8.15;;;;;;;15.39;nan;100275.47;5000748;28;20022;-50
2023/03/30 10:38:14;;;;;;;14.57;7.90;;;;;;;15.37;nan;100274.78;5002344;28;20049;-49
2023/03/30 10:40:43;;;;;;;11.50;7.28;;;;;;;15.35;nan;100285.53;5000208;28;20046;-49
2023/03/30 10:43:19;;;;;;;12.18;7.90;;;;;;;15.36;nan;100292.50;5002098;28;20089;-51
2023/03/30 10:45:52;;;;;;;13.75;7.68;;;;;;;15.39;nan;100289.59;4997011;28;20497;-50
2023/03/30 10:48:32;;;;;;;12.75;7.35;;;;;;;15.45;nan;100282.06;4995496;28;20084;-48
2023/03/30 10:51:33;;;;;;;12.02;7.57;;;;;;;15.47;nan;100283.63;5000059;28;20037;-49
2023/03/30 10:54:28;;;;;;;14.65;8.15;;;;;;;15.42;nan;100280.53;4998774;28;20845;-50
2023/03/30 10:57:05;;;;;;;15.82;7.13;;;;;;;15.30;nan;100289.53;4995480;28;20093;-49
2023/03/30 11:00:26;;;;;;;13.63;7.70;;;;;;;15.27;nan;100282.69;5000839;28;20691;-48
2023/03/30 11:03:06;;;;;;;13.05;6.60;;;;;;;15.24;nan;100283.78;4978627;28;20092;-52
2023/03/30 11:05:40;;;;;;;13.43;7.65;;;;;;;15.26;nan;100274.84;4996145;28;20096;-49
2023/03/30 11:08:11;;;;;;;11.63;7.53;;;;;;;15.24;nan;100277.66;4996928;28;20026;-49
2023/03/30 11:10:40;;;;;;;11.60;6.63;;;;;;;15.26;nan;100262.47;4994508;28;20072;-49
2023/03/30 11:13:19;;;;;;;11.85;7.78;;;;;;;15.33;nan;100260.13;4997617;28;20034;-49
2023/03/30 11:15:51;;;;;;;12.13;6.55;;;;;;;15.37;nan;100261.50;4997658;28;20061;-50
2023/03/30 11:18:29;;;;;;;14.52;7.15;;;;;;;15.43;nan;100254.88;4997187;28;20092;-50
2023/03/30 11:21:07;;;;;;;11.68;7.03;;;;;;;15.45;nan;100259.06;4998333;28;20050;-52
2023/03/30 11:23:47;;;;;;;15.25;8.05;;;;;;;15.52;nan;100254.88;4996171;28;20118;-49
2023/03/30 11:26:20;;;;;;;15.75;8.00;;;;;;;15.60;nan;100245.44;4997397;28;20048;-50
2023/03/30 11:28:58;;;;;;;17.67;8.20;;;;;;;15.73;nan;100245.22;4998384;28;20092;-51
2023/03/30 11:31:49;;;;;;;18.10;8.68;;;;;;;15.94;nan;100245.19;4992336;28;20026;-50
2023/03/30 11:34:30;;;;;;;42.72;22.45;;;;;;;16.09;nan;100243.81;4989951;28;21449;-51
2023/03/30 11:37:11;;;;;;;27.88;12.77;;;;;;;16.21;nan;100243.69;4995734;28;20022;-49
2023/03/30 11:39:46;;;;;;;22.10;10.67;;;;;;;16.27;nan;100237.81;4983474;28;20022;-51
2023/03/30 11:42:22;;;;;;;21.55;11.05;;;;;;;16.32;nan;100232.94;4995216;28;20117;-50
2023/03/30 11:44:48;;;;;;;19.45;9.00;;;;;;;16.38;nan;100232.41;4996136;28;20034;-51
2023/03/30 11:47:40;;;;;;;15.90;8.32;;;;;;;16.44;nan;100226.50;4983499;28;20451;-49
2023/03/30 11:50:30;;;;;;;9.18;5.55;;;;;;;16.48;nan;100221.78;4994251;28;20026;-49